Time,TemperatureF,DewpointF,PressureIn,WindDirection,WindDirectionDegrees,WindSpeedMPH,WindSpeedGustMPH,Humidity,HourlyPrecipIn,Conditions,Clouds,dailyrainin,SoftwareType,DateUTC
2013-10-08 00:03:00,45.0,43.0,-100.00,SW,215,0.0,2.0,90,0.00,,,-99.99,,2013-10-08 05:03:00,
2013-10-08 00:13:00,45.0,43.0,-100.00,SW,215,0.0,2.0,90,0.00,,,-99.99,,2013-10-08 05:13:00,
2013-10-08 00:53:00,42.0,40.0,-100.00,SW,230,0.0,0.0,91,0.00,,,-99.99,,2013-10-08 05:53:00,
2013-10-08 01:02:00,42.0,40.0,-100.00,SW,230,0.0,0.0,91,0.00,,,-99.99,,2013-10-08 06:02:00,
2013-10-08 01:12:00,42.0,40.0,-100.00,SW,230,0.0,0.0,91,0.00,,,-99.99,,2013-10-08 06:12:00,
2013-10-08 01:52:00,44.0,41.0,-100.00,WSW,240,2.0,3.0,91,0.00,,,-99.99,,2013-10-08 06:52:00,
2013-10-08 02:02:00,44.0,41.0,-100.00,WSW,240,2.0,3.0,91,0.00,,,-99.99,,2013-10-08 07:02:00,
2013-10-08 02:11:00,44.0,41.0,-100.00,WSW,240,2.0,3.0,91,0.00,,,-99.99,,2013-10-08 07:11:00,
2013-10-08 02:20:00,42.0,40.0,-100.00,South,170,0.0,1.0,91,0.00,,,-99.99,,2013-10-08 07:20:00,
2013-10-08 02:52:00,42.0,40.0,-100.00,South,170,0.0,1.0,91,0.00,,,-99.99,,2013-10-08 07:52:00,
2013-10-08 03:02:00,42.0,40.0,-100.00,South,170,0.0,1.0,91,0.00,,,-99.99,,2013-10-08 08:02:00,
2013-10-08 03:12:00,42.0,40.0,-100.00,South,170,0.0,1.0,91,0.00,,,-99.99,,2013-10-08 08:12:00,
2013-10-08 03:52:00,40.0,38.0,-100.00,WNW,300,0.0,0.0,91,0.00,,,-99.99,,2013-10-08 08:52:00,
2013-10-08 04:02:00,40.0,38.0,-100.00,WNW,300,0.0,0.0,91,0.00,,,-99.99,,2013-10-08 09:02:00,
2013-10-08 04:12:00,40.0,38.0,-100.00,WNW,300,0.0,0.0,91,0.00,,,-99.99,,2013-10-08 09:12:00,
2013-10-08 04:53:00,39.0,37.0,-100.00,East,90,0.0,0.0,91,0.00,,,-99.99,,2013-10-08 09:53:00,
2013-10-08 05:03:00,39.0,37.0,-100.00,East,90,0.0,0.0,91,0.00,,,-99.99,,2013-10-08 10:03:00,
2013-10-08 05:12:00,39.0,37.0,-100.00,East,90,0.0,0.0,91,0.00,,,-99.99,,2013-10-08 10:12:00,
2013-10-08 05:53:00,41.0,39.0,-100.00,SW,220,1.0,2.0,92,0.00,,,-99.99,,2013-10-08 10:53:00,
2013-10-08 06:02:00,41.0,39.0,-100.00,SW,220,1.0,2.0,92,0.00,,,-99.99,,2013-10-08 11:02:00,
2013-10-08 06:12:00,41.0,39.0,-100.00,SW,220,1.0,2.0,92,0.00,,,-99.99,,2013-10-08 11:12:00,
2013-10-08 06:52:00,39.0,37.0,-100.00,NNE,20,0.0,1.0,92,0.00,,,-99.99,,2013-10-08 11:52:00,
2013-10-08 07:02:00,39.0,37.0,-100.00,NNE,20,0.0,1.0,92,0.00,,,-99.99,,2013-10-08 12:02:00,
2013-10-08 07:12:00,39.0,37.0,-100.00,NNE,20,0.0,1.0,92,0.00,,,-99.99,,2013-10-08 12:12:00,
2013-10-08 07:52:00,40.0,37.0,-100.00,NW,325,0.0,2.0,92,0.00,,,-99.99,,2013-10-08 12:52:00,
2013-10-08 08:01:00,40.0,37.0,-100.00,NW,325,0.0,2.0,92,0.00,,,-99.99,,2013-10-08 13:01:00,
2013-10-08 08:12:00,40.0,37.0,-100.00,NW,325,0.0,2.0,92,0.00,,,-99.99,,2013-10-08 13:12:00,
2013-10-08 08:52:00,46.0,44.0,-100.00,South,170,2.0,3.0,92,0.00,,,-99.99,,2013-10-08 13:52:00,
2013-10-08 09:02:00,46.0,44.0,-100.00,South,170,2.0,3.0,92,0.00,,,-99.99,,2013-10-08 14:02:00,
2013-10-08 09:11:00,46.0,44.0,-100.00,South,170,2.0,3.0,92,0.00,,,-99.99,,2013-10-08 14:11:00,
2013-10-08 09:52:00,52.0,48.0,-100.00,South,170,4.0,7.0,86,0.00,,,-99.99,,2013-10-08 14:52:00,
2013-10-08 10:01:00,52.0,48.0,-100.00,South,170,4.0,7.0,86,0.00,,,-99.99,,2013-10-08 15:01:00,
2013-10-08 10:11:00,52.0,48.0,-100.00,South,170,4.0,7.0,86,0.00,,,-99.99,,2013-10-08 15:11:00,
2013-10-08 10:53:00,61.0,44.0,-100.00,South,175,6.0,12.0,54,0.00,,,-99.99,,2013-10-08 15:53:00,
2013-10-08 11:03:00,61.0,44.0,-100.00,South,175,6.0,12.0,54,0.00,,,-99.99,,2013-10-08 16:03:00,
2013-10-08 11:13:00,61.0,44.0,-100.00,South,175,6.0,12.0,54,0.00,,,-99.99,,2013-10-08 16:13:00,
2013-10-08 11:53:00,66.0,41.0,-100.00,SSW,195,7.0,12.0,40,0.00,,,-99.99,,2013-10-08 16:53:00,
2013-10-08 12:03:00,66.0,41.0,-100.00,SSW,195,7.0,12.0,40,0.00,,,-99.99,,2013-10-08 17:03:00,
2013-10-08 12:12:00,66.0,41.0,-100.00,SSW,195,7.0,12.0,40,0.00,,,-99.99,,2013-10-08 17:12:00,
2013-10-08 12:52:00,72.0,40.0,-100.00,SSE,165,6.0,12.0,32,0.00,,,-99.99,,2013-10-08 17:52:00,
2013-10-08 13:02:00,72.0,40.0,-100.00,SSE,165,6.0,12.0,32,0.00,,,-99.99,,2013-10-08 18:02:00,
2013-10-08 13:11:00,72.0,40.0,-100.00,SSE,165,6.0,12.0,32,0.00,,,-99.99,,2013-10-08 18:11:00,
2013-10-08 20:52:00,60.0,41.0,-100.00,SW,215,3.0,6.0,51,0.00,,,-99.99,,2013-10-09 01:52:00,
2013-10-08 21:03:00,60.0,41.0,-100.00,SW,215,3.0,6.0,51,0.00,,,-99.99,,2013-10-09 02:03:00,
2013-10-08 21:12:00,60.0,41.0,-100.00,SW,215,3.0,6.0,51,0.00,,,-99.99,,2013-10-09 02:12:00,
2013-10-08 21:52:00,56.0,43.0,-100.00,South,190,2.0,4.0,61,0.00,,,-99.99,,2013-10-09 02:52:00,
2013-10-08 22:02:00,56.0,43.0,-100.00,South,190,2.0,4.0,61,0.00,,,-99.99,,2013-10-09 03:02:00,
2013-10-08 22:11:00,56.0,43.0,-100.00,South,190,2.0,4.0,61,0.00,,,-99.99,,2013-10-09 03:11:00,
2013-10-08 22:54:00,59.0,45.0,-100.00,South,175,3.0,6.0,61,0.00,,,-99.99,,2013-10-09 03:54:00,
2013-10-08 23:05:00,59.0,45.0,-100.00,South,175,3.0,6.0,61,0.00,,,-99.99,,2013-10-09 04:05:00,
2013-10-08 23:14:00,59.0,45.0,-100.00,South,175,3.0,6.0,61,0.00,,,-99.99,,2013-10-09 04:14:00,
2013-10-08 23:54:00,58.0,45.0,-100.00,South,180,5.0,6.0,63,0.00,,,-99.99,,2013-10-09 04:54:00,